createdAt,value
2022-11-20T00:00:00.552Z,72.54
2022-11-20T00:02:31.293Z,72.18
2022-11-20T00:05:01.904Z,72.09
2022-11-20T00:07:32.585Z,71.86
2022-11-20T00:10:03.458Z,71.65
2022-11-20T00:12:34.185Z,71.98
2022-11-20T00:15:05.775Z,71.74
2022-11-20T00:17:36.482Z,71.99
2022-11-20T00:20:08.903Z,71.97
2022-11-20T00:22:39.693Z,72.41
2022-11-20T00:25:11.220Z,72.22
2022-11-20T00:27:41.991Z,72.31
2022-11-20T00:30:15.144Z,72.15
2022-11-20T00:32:46.100Z,71.99
2022-11-20T00:35:16.863Z,71.53
2022-11-20T00:37:47.481Z,71.67
2022-11-20T00:40:18.419Z,71.57
2022-11-20T00:42:49.113Z,71.48
2022-11-20T00:45:19.746Z,71.40
2022-11-20T00:47:50.356Z,71.40
2022-11-20T00:50:21.110Z,71.42
2022-11-20T00:52:51.815Z,71.15
2022-11-20T00:55:22.602Z,71.30
2022-11-20T00:57:53.260Z,71.37
2022-11-20T01:00:23.986Z,71.32
2022-11-20T01:02:54.644Z,71.34
2022-11-20T01:05:25.325Z,71.32
2022-11-20T01:07:55.958Z,71.43
2022-11-20T01:10:26.905Z,71.82
2022-11-20T01:13:11.596Z,71.43
2022-11-20T01:15:42.689Z,71.72
2022-11-20T01:18:13.329Z,71.85
2022-11-20T01:20:44.052Z,71.94
2022-11-20T01:23:14.658Z,71.42
2022-11-20T01:25:45.386Z,71.48
2022-11-20T01:28:16.108Z,71.50
2022-11-20T01:30:46.843Z,71.35
2022-11-20T01:33:17.545Z,71.59
2022-11-20T01:35:48.260Z,71.16
2022-11-20T01:38:21.092Z,71.49
2022-11-20T01:40:58.883Z,71.37
2022-11-20T01:43:29.957Z,71.97
2022-11-20T01:46:17.364Z,71.78
2022-11-20T01:48:55.585Z,72.16
2022-11-20T01:51:31.625Z,72.10
2022-11-20T01:54:07.597Z,72.51
2022-11-20T01:56:43.722Z,72.29
2022-11-20T01:59:17.540Z,72.32
2022-11-20T02:01:49.075Z,72.01
2022-11-20T02:04:20.435Z,72.04
2022-11-20T02:06:54.119Z,72.37
2022-11-20T02:09:24.861Z,72.28
2022-11-20T02:11:56.161Z,72.26
2022-11-20T02:14:27.500Z,71.91
2022-11-20T02:16:59.452Z,72.49
2022-11-20T02:19:32.433Z,72.49
2022-11-20T02:22:10.285Z,72.43
2022-11-20T02:24:42.004Z,72.35
2022-11-20T02:27:14.415Z,72.76
2022-11-20T02:29:50.363Z,72.20
2022-11-20T02:32:26.361Z,71.83
2022-11-20T02:34:57.812Z,71.69
2022-11-20T02:37:35.681Z,71.73
2022-11-20T02:40:07.911Z,71.76
2022-11-20T02:42:39.101Z,72.13
2022-11-20T02:45:11.646Z,71.97
2022-11-20T02:47:42.476Z,72.42
2022-11-20T02:50:13.538Z,72.42
2022-11-20T02:52:44.611Z,72.12
2022-11-20T02:55:15.431Z,72.32
2022-11-20T02:57:46.199Z,72.28
2022-11-20T03:00:17.859Z,72.44
2022-11-20T03:02:48.646Z,72.73
2022-11-20T03:05:19.638Z,72.90
2022-11-20T03:07:50.523Z,72.41
2022-11-20T03:10:21.151Z,72.05
2022-11-20T03:12:57.228Z,72.89
2022-11-20T03:15:27.932Z,72.79
2022-11-20T03:17:58.777Z,72.18
2022-11-20T03:20:29.519Z,72.57
2022-11-20T03:23:00.282Z,72.48
2022-11-20T03:25:31.329Z,72.12
2022-11-20T03:28:02.199Z,71.53
2022-11-20T03:30:32.994Z,71.78
2022-11-20T03:33:03.690Z,71.57
2022-11-20T03:35:34.318Z,71.51
2022-11-20T03:38:05.061Z,71.46
2022-11-20T03:40:37.632Z,71.68
2022-11-20T03:43:08.300Z,71.61
2022-11-20T03:45:39.035Z,71.80
2022-11-20T03:48:10.195Z,71.71
2022-11-20T03:50:40.817Z,71.57
2022-11-20T03:53:12.010Z,71.33
2022-11-20T03:55:42.702Z,71.50
2022-11-20T03:58:14.473Z,71.24
2022-11-20T04:00:45.428Z,71.28
2022-11-20T04:03:16.206Z,71.10
2022-11-20T04:05:46.961Z,71.41
2022-11-20T04:08:17.683Z,71.39
2022-11-20T04:10:48.699Z,71.70
2022-11-20T04:13:19.347Z,71.38
2022-11-20T04:15:50.050Z,71.36
2022-11-20T04:18:20.763Z,71.31
2022-11-20T04:20:51.426Z,71.50
2022-11-20T04:23:25.873Z,71.69
2022-11-20T04:26:05.228Z,71.44
2022-11-20T04:28:36.114Z,71.44
2022-11-20T04:31:08.988Z,71.51
2022-11-20T04:33:40.312Z,71.48
2022-11-20T04:36:15.682Z,71.65
2022-11-20T04:38:46.935Z,71.81
2022-11-20T04:41:20.061Z,71.45
2022-11-20T04:43:51.999Z,71.57
2022-11-20T04:46:23.286Z,72.42
2022-11-20T04:48:54.293Z,72.03
2022-11-20T04:51:25.579Z,72.33
2022-11-20T04:53:56.173Z,72.17
2022-11-20T04:56:27.069Z,72.46
2022-11-20T04:58:57.750Z,72.31
2022-11-20T05:01:28.405Z,72.80
2022-11-20T05:03:59.018Z,71.88
2022-11-20T05:06:29.709Z,71.41
2022-11-20T05:09:00.975Z,71.46
2022-11-20T05:11:31.611Z,71.44
2022-11-20T05:14:03.038Z,71.60
2022-11-20T05:16:36.193Z,72.20
2022-11-20T05:19:06.758Z,72.31
2022-11-20T05:21:37.472Z,72.11
2022-11-20T05:24:09.094Z,72.03
2022-11-20T05:26:39.814Z,72.44
2022-11-20T05:29:11.399Z,72.63
2022-11-20T05:31:42.862Z,72.28
2022-11-20T05:34:13.492Z,72.50
2022-11-20T05:36:44.282Z,72.39
2022-11-20T05:39:15.187Z,72.18
2022-11-20T05:41:45.853Z,72.47
2022-11-20T05:44:16.999Z,72.48
2022-11-20T05:46:47.646Z,71.85
2022-11-20T05:49:18.317Z,72.04
2022-11-20T05:51:49.128Z,72.31
2022-11-20T05:54:20.075Z,72.43
2022-11-20T05:56:50.776Z,72.10
2022-11-20T05:59:21.752Z,72.23
2022-11-20T06:01:52.717Z,71.99
2022-11-20T06:04:23.297Z,72.35
2022-11-20T06:06:53.882Z,72.00
2022-11-20T06:09:24.536Z,71.94
2022-11-20T06:11:55.159Z,71.92
2022-11-20T06:14:25.874Z,71.41
2022-11-20T06:16:56.611Z,71.47
2022-11-20T06:19:27.177Z,71.48
2022-11-20T06:21:57.770Z,71.91
2022-11-20T06:24:28.487Z,72.75
2022-11-20T06:26:59.263Z,82.96
2022-11-20T06:29:33.732Z,89.89
2022-11-20T06:32:05.204Z,78.89
2022-11-20T06:34:35.898Z,74.87
2022-11-20T06:37:06.701Z,73.44
2022-11-20T06:39:37.346Z,72.18
2022-11-20T06:42:08.074Z,71.29
2022-11-20T06:44:38.654Z,71.01
2022-11-20T06:47:09.436Z,71.15
2022-11-20T06:49:40.334Z,70.92
2022-11-20T06:52:10.934Z,71.27
2022-11-20T06:54:41.520Z,71.54
2022-11-20T06:57:12.180Z,71.28
2022-11-20T06:59:42.842Z,71.38
2022-11-20T07:02:14.878Z,71.40
2022-11-20T07:04:45.483Z,71.41
2022-11-20T07:07:16.326Z,71.64
2022-11-20T07:09:47.078Z,71.96
2022-11-20T07:12:17.784Z,71.55
2022-11-20T07:14:48.342Z,71.81
2022-11-20T07:17:19.092Z,71.81
2022-11-20T07:19:49.824Z,71.61
2022-11-20T07:22:22.744Z,70.90
2022-11-20T07:24:53.577Z,70.82
2022-11-20T07:27:24.293Z,70.79
2022-11-20T07:29:55.301Z,70.41
2022-11-20T07:32:26.395Z,69.51
2022-11-20T07:34:57.123Z,69.13
2022-11-20T07:37:27.721Z,69.98
2022-11-20T07:39:58.502Z,69.54
2022-11-20T07:42:29.127Z,69.26
2022-11-20T07:45:00.519Z,68.78
2022-11-20T07:47:31.389Z,68.16
2022-11-20T07:50:02.077Z,67.33
2022-11-20T07:52:32.772Z,68.17
2022-11-20T07:55:03.535Z,66.98
2022-11-20T07:57:34.339Z,66.66
2022-11-20T08:00:06.225Z,66.51
2022-11-20T08:02:56.892Z,67.32
2022-11-20T08:05:27.614Z,68.24
2022-11-20T08:07:58.254Z,68.18
2022-11-20T08:10:29.161Z,67.12
2022-11-20T08:13:17.802Z,66.65
2022-11-20T08:15:52.739Z,66.04
2022-11-20T08:18:31.323Z,64.82
2022-11-20T08:21:03.404Z,65.52
2022-11-20T08:23:34.052Z,65.40
2022-11-20T08:26:04.771Z,65.14
2022-11-20T08:28:35.385Z,64.71
2022-11-20T08:31:07.162Z,64.70
2022-11-20T08:33:38.008Z,65.58
2022-11-20T08:36:10.267Z,63.76
2022-11-20T08:38:40.980Z,64.11
2022-11-20T08:41:27.919Z,64.11
2022-11-20T08:44:00.626Z,63.91
2022-11-20T08:46:36.455Z,64.20
2022-11-20T08:49:08.026Z,63.19
2022-11-20T08:51:39.599Z,62.76
2022-11-20T08:54:10.712Z,62.95
2022-11-20T08:56:41.440Z,62.86
2022-11-20T08:59:50.915Z,61.98
2022-11-20T09:02:05.775Z,61.88
2022-11-20T09:04:36.317Z,62.12
2022-11-20T09:07:07.138Z,61.88
2022-11-20T09:09:37.884Z,60.84
2022-11-20T09:12:09.082Z,59.01
2022-11-20T09:14:39.726Z,59.66
2022-11-20T09:17:14.358Z,61.15
2022-11-20T09:19:45.324Z,60.04
2022-11-20T09:22:17.395Z,59.76
2022-11-20T09:24:48.087Z,59.85
2022-11-20T09:27:22.566Z,60.21
2022-11-20T09:29:53.235Z,60.72
2022-11-20T09:32:23.930Z,60.34
2022-11-20T09:34:54.670Z,60.58
2022-11-20T09:37:25.916Z,60.84
2022-11-20T09:39:56.765Z,59.99
2022-11-20T09:42:43.453Z,59.39
2022-11-20T09:45:30.137Z,58.94
2022-11-20T09:48:11.014Z,59.74
2022-11-20T09:51:06.103Z,59.20
2022-11-20T09:53:48.493Z,58.50
2022-11-20T09:56:22.610Z,56.88
2022-11-20T09:58:57.245Z,58.14
2022-11-20T10:01:32.850Z,59.22
2022-11-20T10:04:08.185Z,58.97
2022-11-20T10:06:59.740Z,58.80
2022-11-20T10:09:46.066Z,57.83
2022-11-20T10:12:25.022Z,58.03
2022-11-20T10:15:12.574Z,57.92
2022-11-20T10:18:15.816Z,58.19
2022-11-20T10:20:54.060Z,58.66
2022-11-20T10:23:52.923Z,58.22
2022-11-20T10:26:32.074Z,58.59
2022-11-20T10:29:09.987Z,57.12
2022-11-20T10:31:46.916Z,57.53
2022-11-20T10:34:24.760Z,57.93
2022-11-20T10:37:00.447Z,58.33
2022-11-20T10:39:43.701Z,58.41
2022-11-20T10:42:26.586Z,58.00
2022-11-20T10:45:06.788Z,58.22
2022-11-20T10:47:37.952Z,58.05
2022-11-20T10:50:21.858Z,57.79
2022-11-20T10:53:07.311Z,58.08
2022-11-20T10:55:48.077Z,57.99
2022-11-20T10:58:31.978Z,58.78
2022-11-20T11:01:15.643Z,58.56
2022-11-20T11:03:46.811Z,59.23
2022-11-20T11:06:26.365Z,59.21
2022-11-20T11:08:58.858Z,59.34
2022-11-20T11:11:34.013Z,60.29
2022-11-20T11:14:15.886Z,60.47
2022-11-20T11:16:58.198Z,60.92
2022-11-20T11:19:30.105Z,60.54
2022-11-20T11:22:01.588Z,61.62
2022-11-20T11:24:42.588Z,61.76
2022-11-20T11:27:18.868Z,61.72
2022-11-20T11:29:50.544Z,62.80
2022-11-20T11:32:23.141Z,62.35
2022-11-20T11:35:04.915Z,62.07
2022-11-20T11:37:43.836Z,62.65
2022-11-20T11:40:23.795Z,62.95
2022-11-20T11:42:59.873Z,62.85
2022-11-20T11:45:30.855Z,63.06
2022-11-20T11:48:05.901Z,63.13
2022-11-20T11:50:39.354Z,63.11
2022-11-20T11:53:15.670Z,63.69
2022-11-20T11:55:52.755Z,63.26
2022-11-20T11:58:44.057Z,63.15
2022-11-20T12:01:30.736Z,63.47
2022-11-20T12:04:13.909Z,63.56
2022-11-20T12:06:50.494Z,63.38
2022-11-20T12:09:26.415Z,62.98
2022-11-20T12:12:06.590Z,62.81
2022-11-20T12:14:39.384Z,63.13
2022-11-20T12:17:15.669Z,63.50
2022-11-20T12:19:46.380Z,63.82
2022-11-20T12:22:25.908Z,63.83
2022-11-20T12:25:04.328Z,64.09
2022-11-20T12:28:16.807Z,64.21
2022-11-20T12:30:58.293Z,64.45
2022-11-20T12:33:56.833Z,64.64
2022-11-20T12:36:35.558Z,64.57
2022-11-20T12:39:23.731Z,64.79
2022-11-20T12:42:36.586Z,64.95
2022-11-20T12:45:21.653Z,65.52
2022-11-20T12:48:05.001Z,65.52
2022-11-20T12:51:07.976Z,65.97
2022-11-20T12:53:48.490Z,66.36
2022-11-20T12:56:30.031Z,66.83
2022-11-20T12:59:21.158Z,67.14
2022-11-20T13:01:57.772Z,67.63
2022-11-20T13:05:00.430Z,67.56
2022-11-20T13:07:32.619Z,67.83
2022-11-20T13:10:11.584Z,68.26
2022-11-20T13:12:52.079Z,67.94
2022-11-20T13:15:42.327Z,68.43
2022-11-20T13:18:14.940Z,69.19
2022-11-20T13:20:50.713Z,69.52
2022-11-20T13:23:32.457Z,69.38
2022-11-20T13:26:22.543Z,69.43
2022-11-20T13:29:07.936Z,69.34
2022-11-20T13:31:37.762Z,69.57
2022-11-20T13:34:14.538Z,69.79
2022-11-20T13:36:54.943Z,69.72
2022-11-20T13:39:33.209Z,69.34
2022-11-20T13:42:23.591Z,69.80
2022-11-20T13:45:02.592Z,69.77
2022-11-20T13:47:33.664Z,69.56
2022-11-20T13:50:13.368Z,70.15
2022-11-20T13:52:58.144Z,69.87
2022-11-20T13:55:42.574Z,69.69
2022-11-20T13:58:33.494Z,70.23
2022-11-20T14:01:10.810Z,69.91
2022-11-20T14:04:05.194Z,69.51
2022-11-20T14:06:41.227Z,69.49
2022-11-20T14:09:26.788Z,69.35
2022-11-20T14:11:57.853Z,69.87
2022-11-20T14:14:30.338Z,69.40
2022-11-20T14:17:19.357Z,69.20
2022-11-20T14:19:52.197Z,69.55
2022-11-20T14:22:25.660Z,69.32
2022-11-20T14:25:19.951Z,68.88
2022-11-20T14:27:55.658Z,68.60
2022-11-20T14:30:29.860Z,68.91
2022-11-20T14:33:04.244Z,69.02
2022-11-20T14:35:39.728Z,69.19
2022-11-20T14:38:16.400Z,69.35
2022-11-20T14:40:47.296Z,69.33
2022-11-20T14:43:25.190Z,69.53
2022-11-20T14:46:00.414Z,69.86
2022-11-20T14:48:34.928Z,69.97
2022-11-20T14:51:05.733Z,69.99
2022-11-20T14:53:36.295Z,70.16
2022-11-20T14:56:07.443Z,70.43
2022-11-20T14:58:38.067Z,70.77
2022-11-20T15:01:14.079Z,70.78
2022-11-20T15:03:45.042Z,70.74
2022-11-20T15:06:16.115Z,70.51
2022-11-20T15:08:55.888Z,71.17
2022-11-20T15:11:32.214Z,70.91
2022-11-20T15:14:09.730Z,70.50
2022-11-20T15:16:44.986Z,70.57
2022-11-20T15:19:24.041Z,71.10
2022-11-20T15:21:55.727Z,70.96
2022-11-20T15:24:30.987Z,70.91
2022-11-20T15:27:06.645Z,71.32
2022-11-20T15:29:39.528Z,71.29
2022-11-20T15:32:13.566Z,71.39
2022-11-20T15:34:51.075Z,71.31
2022-11-20T15:37:29.735Z,72.04
2022-11-20T15:40:02.032Z,72.37
2022-11-20T15:42:42.022Z,72.27
2022-11-20T15:45:25.030Z,71.73
2022-11-20T15:48:05.879Z,71.94
2022-11-20T15:50:49.383Z,71.75
2022-11-20T15:53:26.116Z,71.89
2022-11-20T15:55:59.239Z,71.81
2022-11-20T15:58:32.436Z,71.68
2022-11-20T16:01:05.856Z,72.06
2022-11-20T16:03:37.417Z,71.75
2022-11-20T16:06:10.425Z,72.19
2022-11-20T16:08:43.867Z,71.90
2022-11-20T16:11:21.568Z,71.94
2022-11-20T16:14:09.869Z,72.06
2022-11-20T16:16:44.122Z,72.21
2022-11-20T16:19:19.094Z,72.30
2022-11-20T16:21:49.955Z,72.38
2022-11-20T16:24:21.695Z,72.05
2022-11-20T16:27:01.778Z,72.14
2022-11-20T16:29:35.359Z,72.55
2022-11-20T16:32:07.567Z,72.69
2022-11-20T16:34:40.525Z,72.50
2022-11-20T16:37:11.493Z,72.37
2022-11-20T16:39:44.777Z,72.35
2022-11-20T16:42:13.851Z,72.46
2022-11-20T16:44:47.365Z,72.87
2022-11-20T16:47:18.016Z,72.86
2022-11-20T16:49:48.687Z,72.62
2022-11-20T16:52:19.360Z,72.61
2022-11-20T16:54:49.991Z,73.36
2022-11-20T16:57:20.614Z,74.12
2022-11-20T16:59:53.606Z,74.70
2022-11-20T17:02:26.015Z,73.63
2022-11-20T17:04:56.738Z,72.60
2022-11-20T17:07:27.506Z,72.82
2022-11-20T17:09:58.244Z,72.73
2022-11-20T17:12:28.947Z,72.93
2022-11-20T17:14:59.496Z,72.99
2022-11-20T17:17:30.431Z,72.83
2022-11-20T17:20:01.015Z,72.52
2022-11-20T17:22:32.443Z,72.21
2022-11-20T17:25:03.134Z,72.52
2022-11-20T17:27:34.028Z,72.75
2022-11-20T17:30:04.905Z,72.68
2022-11-20T17:32:36.574Z,72.69
2022-11-20T17:35:08.680Z,73.14
2022-11-20T17:37:39.590Z,73.29
2022-11-20T17:40:12.001Z,73.13
2022-11-20T17:42:43.089Z,72.49
2022-11-20T17:45:14.008Z,73.01
2022-11-20T17:47:46.461Z,73.06
2022-11-20T17:50:17.298Z,73.16
2022-11-20T17:52:48.105Z,72.85
2022-11-20T17:55:21.189Z,72.96
2022-11-20T17:57:56.832Z,73.26
2022-11-20T18:00:28.402Z,73.03
2022-11-20T18:02:59.585Z,73.17
2022-11-20T18:05:30.609Z,73.54
2022-11-20T18:08:01.214Z,73.22
2022-11-20T18:10:33.512Z,73.11
2022-11-20T18:13:04.394Z,73.26
2022-11-20T18:15:35.039Z,73.78
2022-11-20T18:18:06.304Z,73.50
2022-11-20T18:20:40.004Z,73.34
2022-11-20T18:23:11.048Z,73.04
2022-11-20T18:25:43.491Z,73.27
2022-11-20T18:28:27.586Z,73.25
2022-11-20T18:31:05.669Z,72.64
2022-11-20T18:33:37.524Z,72.59
2022-11-20T18:36:14.485Z,72.54
2022-11-20T18:38:52.112Z,72.47
2022-11-20T18:41:45.071Z,72.83
2022-11-20T18:44:35.636Z,73.16
2022-11-20T18:47:14.252Z,72.81
2022-11-20T18:49:46.254Z,72.91
2022-11-20T18:52:16.908Z,72.90
2022-11-20T18:54:47.622Z,72.72
2022-11-20T18:57:19.438Z,73.40
2022-11-20T18:59:50.158Z,73.19
2022-11-20T19:02:22.052Z,72.73
2022-11-20T19:04:52.809Z,72.89
2022-11-20T19:07:24.090Z,72.48
2022-11-20T19:09:59.556Z,72.55
2022-11-20T19:12:33.148Z,72.66
2022-11-20T19:15:04.064Z,72.58
2022-11-20T19:17:35.912Z,72.52
2022-11-20T19:20:08.242Z,73.28
2022-11-20T19:22:38.914Z,73.08
2022-11-20T19:25:11.815Z,73.02
2022-11-20T19:27:42.623Z,73.05
2022-11-20T19:30:15.455Z,72.46
2022-11-20T19:32:46.281Z,72.63
2022-11-20T19:35:17.227Z,72.85
2022-11-20T19:37:47.968Z,73.65
2022-11-20T19:40:18.676Z,73.60
2022-11-20T19:42:49.291Z,73.18
2022-11-20T19:45:20.045Z,73.35
2022-11-20T19:48:07.231Z,73.90
2022-11-20T19:50:38.703Z,74.53
2022-11-20T19:53:11.365Z,75.09
2022-11-20T19:55:43.143Z,75.15
2022-11-20T19:58:13.884Z,74.54
2022-11-20T20:00:44.602Z,73.77
2022-11-20T20:03:15.314Z,73.90
2022-11-20T20:05:46.335Z,74.06
2022-11-20T20:08:17.433Z,73.91
2022-11-20T20:10:47.978Z,73.66
2022-11-20T20:13:18.719Z,73.07
2022-11-20T20:15:49.843Z,73.63
2022-11-20T20:18:20.646Z,73.35
2022-11-20T20:20:51.455Z,73.66
2022-11-20T20:23:22.180Z,73.49
2022-11-20T20:25:52.900Z,73.01
2022-11-20T20:28:23.793Z,73.24
2022-11-20T20:30:54.725Z,73.19
2022-11-20T20:33:25.485Z,74.05
2022-11-20T20:35:56.327Z,74.77
2022-11-20T20:38:27.032Z,75.83
2022-11-20T20:40:57.629Z,76.15
2022-11-20T20:43:29.281Z,76.00
2022-11-20T20:46:00.185Z,75.50
2022-11-20T20:48:30.862Z,75.40
2022-11-20T20:51:03.700Z,75.47
2022-11-20T20:53:34.437Z,75.88
2022-11-20T20:56:08.153Z,75.22
2022-11-20T20:58:38.961Z,75.17
2022-11-20T21:01:11.268Z,75.06
2022-11-20T21:03:42.533Z,74.90
2022-11-20T21:06:13.846Z,75.12
2022-11-20T21:08:44.803Z,75.36
2022-11-20T21:11:17.464Z,75.73
2022-11-20T21:13:49.252Z,75.17
2022-11-20T21:16:22.399Z,75.26
2022-11-20T21:18:53.366Z,75.10
2022-11-20T21:21:41.922Z,75.50
2022-11-20T21:24:12.840Z,75.37
2022-11-20T21:26:43.682Z,75.53
2022-11-20T21:29:14.561Z,75.28
2022-11-20T21:31:45.564Z,75.36
2022-11-20T21:34:17.319Z,75.49
2022-11-20T21:36:48.464Z,75.63
2022-11-20T21:39:20.469Z,75.33
2022-11-20T21:41:51.241Z,75.19
2022-11-20T21:44:37.122Z,74.83
2022-11-20T21:47:08.803Z,75.05
2022-11-20T21:49:41.282Z,74.92
2022-11-20T21:52:11.934Z,74.43
2022-11-20T21:54:42.630Z,74.42
2022-11-20T21:57:13.373Z,74.72
2022-11-20T21:59:44.203Z,74.62
2022-11-20T22:02:15.470Z,74.76
2022-11-20T22:04:46.406Z,74.91
2022-11-20T22:07:17.131Z,75.03
2022-11-20T22:09:48.627Z,75.43
2022-11-20T22:12:19.341Z,75.00
2022-11-20T22:14:49.982Z,75.13
2022-11-20T22:17:40.693Z,75.11
2022-11-20T22:20:13.117Z,74.68
2022-11-20T22:22:43.906Z,74.78
2022-11-20T22:25:14.580Z,74.86
2022-11-20T22:27:46.922Z,74.68
2022-11-20T22:30:18.035Z,74.59
2022-11-20T22:32:48.740Z,74.51
2022-11-20T22:35:19.478Z,74.52
2022-11-20T22:37:52.646Z,75.23
2022-11-20T22:40:23.391Z,75.12
2022-11-20T22:42:54.125Z,75.28
2022-11-20T22:45:24.755Z,75.82
2022-11-20T22:47:55.531Z,75.53
2022-11-20T22:50:26.355Z,75.48
2022-11-20T22:52:57.189Z,75.73
2022-11-20T22:55:27.909Z,74.97
2022-11-20T22:57:58.929Z,75.26
2022-11-20T23:00:29.635Z,75.15
2022-11-20T23:03:00.422Z,75.30
2022-11-20T23:05:33.229Z,75.33
2022-11-20T23:08:03.926Z,75.26
2022-11-20T23:10:34.626Z,75.19
2022-11-20T23:13:05.507Z,75.15
2022-11-20T23:15:37.183Z,75.68
2022-11-20T23:18:07.952Z,76.25
2022-11-20T23:20:39.577Z,76.11
2022-11-20T23:23:10.253Z,76.29
2022-11-20T23:25:40.916Z,76.38
2022-11-20T23:28:11.905Z,76.41
2022-11-20T23:30:42.682Z,76.45
2022-11-20T23:33:13.281Z,76.59
2022-11-20T23:35:47.558Z,76.79
2022-11-20T23:38:18.323Z,76.67
2022-11-20T23:40:51.369Z,76.97
2022-11-20T23:43:23.796Z,77.01
2022-11-20T23:46:01.965Z,76.43
2022-11-20T23:48:37.615Z,76.50
2022-11-20T23:51:09.304Z,76.85
2022-11-20T23:53:40.045Z,76.74
2022-11-20T23:56:12.154Z,76.69
2022-11-20T23:58:43.387Z,77.42
